Time;durP1;ratioP1;P1;durP2;ratioP2;P2;SDS_P1;SDS_P2;PMS_P1;PMS_P2;Temp;Humidity;BMP_temperature;BMP_pressure;BME280_temperature;BME280_humidity;BME280_pressure;Samples;Min_cycle;Max_cycle;Signal;HPM_P1;HPM_P2
2021/03/20 00:01:49;;;;;;;;;;;;;;;;;;5045189;28;19920;-85
2021/03/20 00:04:15;;;;;;;;;;;;;;;;;;5053362;28;19905;-85
2021/03/20 00:06:40;;;;;;;;;;;;;;;;;;5050120;28;19976;-85
2021/03/20 00:09:05;;;;;;;;;;;;;;;;;;5049294;28;20373;-86
2021/03/20 00:11:31;;;;;;;;;;;;;;;;;;5047475;28;19920;-86
2021/03/20 00:13:56;;;;;;;;;;;;;;;;;;5049034;28;20300;-86
2021/03/20 00:16:23;;;;;;;;;;;;;;;;;;5012159;28;20004;-85
2021/03/20 00:18:48;;;;;;;;;;;;;;;;;;5023788;28;20008;-85
2021/03/20 00:21:13;;;;;;;;;;;;;;;;;;5029546;28;19960;-86
2021/03/20 00:23:38;;;;;;;;;;;;;;;;;;5041746;28;20012;-85
2021/03/20 00:26:03;;;;;;;;;;;;;;;;;;5035588;28;19925;-85
2021/03/20 00:28:28;;;;;;;;;;;;;;;;;;5026595;28;19977;-86
2021/03/20 00:30:56;;;;;;;;;;;;;;;;;;5039976;28;19913;-86
2021/03/20 00:33:21;;;;;;;;;;;;;;;;;;5043324;28;19948;-87
2021/03/20 00:35:49;;;;;;;;;;;;;;;;;;5037077;28;19920;-86
2021/03/20 00:38:14;;;;;;;;;;;;;;;;;;5053775;28;20464;-86
2021/03/20 00:40:52;;;;;;;;;;;;;;;;;;5045826;28;19913;-86
2021/03/20 00:43:46;;;;;;;;;;;;;;;;;;5033523;28;19915;-86
2021/03/20 00:49:15;;;;;;;;;;;;;;;;;;5041230;28;19925;-86
2021/03/20 00:51:40;;;;;;;;;;;;;;;;;;5054899;28;19893;-85
2021/03/20 00:54:05;;;;;;;;;;;;;;;;;;5042052;28;19920;-85
2021/03/20 00:56:57;;;;;;;;;;;;;;;;;;5038934;28;20349;-85
2021/03/20 00:59:22;;;;;;;;;;;;;;;;;;5045067;28;19909;-85
2021/03/20 01:01:49;;;;;;;;;;;;;;;;;;5041213;28;19920;-85
2021/03/20 01:04:14;;;;;;;;;;;;;;;;;;5036965;28;19923;-85
2021/03/20 01:06:42;;;;;;;;;;;;;;;;;;5034522;28;20325;-85
2021/03/20 01:09:28;;;;;;;;;;;;;;;;;;5029575;28;19917;-87
2021/03/20 01:12:11;;;;;;;;;;;;;;;;;;5035280;28;19913;-86
2021/03/20 01:15:06;;;;;;;;;;;;;;;;;;5013362;28;19917;-86
2021/03/20 01:17:51;;;;;;;;;;;;;;;;;;5023672;28;19914;-86
2021/03/20 01:20:19;;;;;;;;;;;;;;;;;;5020932;28;19944;-86
2021/03/20 01:22:44;;;;;;;;;;;;;;;;;;5030436;28;19919;-86
2021/03/20 01:25:09;;;;;;;;;;;;;;;;;;5006012;28;19917;-86
2021/03/20 01:27:34;;;;;;;;;;;;;;;;;;5013310;28;19921;-86
2021/03/20 01:30:00;;;;;;;;;;;;;;;;;;5018892;28;19913;-86
2021/03/20 01:35:29;;;;;;;;;;;;;;;;;;5025340;28;19939;-86
2021/03/20 01:37:54;;;;;;;;;;;;;;;;;;5012683;28;20171;-87
2021/03/20 01:40:19;;;;;;;;;;;;;;;;;;5036282;28;20501;-86
2021/03/20 01:42:44;;;;;;;;;;;;;;;;;;5018857;28;19979;-85
2021/03/20 01:45:09;;;;;;;;;;;;;;;;;;5018342;28;19965;-85
2021/03/20 01:47:34;;;;;;;;;;;;;;;;;;5015965;28;19976;-85
2021/03/20 01:49:59;;;;;;;;;;;;;;;;;;5018483;28;19909;-84
2021/03/20 01:52:24;;;;;;;;;;;;;;;;;;5017556;28;20257;-86
2021/03/20 01:54:49;;;;;;;;;;;;;;;;;;5019107;28;19916;-85
2021/03/20 01:57:14;;;;;;;;;;;;;;;;;;5029291;28;19914;-85
2021/03/20 01:59:40;;;;;;;;;;;;;;;;;;5038177;28;19913;-85
2021/03/20 02:02:05;;;;;;;;;;;;;;;;;;5018820;28;19917;-85
2021/03/20 02:04:30;;;;;;;;;;;;;;;;;;5015833;28;19977;-85
2021/03/20 02:06:55;;;;;;;;;;;;;;;;;;5018481;28;20294;-85
2021/03/20 02:09:20;;;;;;;;;;;;;;;;;;5021178;28;19914;-83
2021/03/20 02:11:45;;;;;;;;;;;;;;;;;;5025788;28;19987;-85
2021/03/20 02:14:10;;;;;;;;;;;;;;;;;;5031203;28;19913;-85
2021/03/20 02:16:35;;;;;;;;;;;;;;;;;;5034889;28;19929;-85
2021/03/20 02:19:00;;;;;;;;;;;;;;;;;;5019066;28;19917;-85
2021/03/20 02:21:25;;;;;;;;;;;;;;;;;;5009009;28;19916;-85
2021/03/20 02:23:51;;;;;;;;;;;;;;;;;;5022888;28;19910;-85
2021/03/20 02:26:16;;;;;;;;;;;;;;;;;;5023661;28;19924;-85
2021/03/20 02:28:47;;;;;;;;;;;;;;;;;;5028842;28;19916;-85
2021/03/20 02:36:59;;;;;;;;;;;;;;;;;;5023120;28;19936;-85
2021/03/20 02:44:52;;;;;;;;;;;;;;;;;;5018986;28;20071;-86
2021/03/20 02:52:52;;;;;;;;;;;;;;;;;;5018106;28;19921;-85
2021/03/20 02:55:17;;;;;;;;;;;;;;;;;;5011079;28;20657;-85
2021/03/20 02:57:42;;;;;;;;;;;;;;;;;;5010180;28;20272;-85
2021/03/20 03:00:07;;;;;;;;;;;;;;;;;;5009119;28;20362;-85
2021/03/20 03:02:32;;;;;;;;;;;;;;;;;;5029497;28;19920;-85
2021/03/20 03:04:57;;;;;;;;;;;;;;;;;;5020839;28;19959;-83
2021/03/20 03:07:22;;;;;;;;;;;;;;;;;;5018429;28;19925;-85
2021/03/20 03:09:47;;;;;;;;;;;;;;;;;;5035865;28;19921;-85
2021/03/20 03:12:12;;;;;;;;;;;;;;;;;;5021301;28;19913;-84
2021/03/20 03:14:37;;;;;;;;;;;;;;;;;;5027448;28;19909;-84
2021/03/20 03:17:03;;;;;;;;;;;;;;;;;;5021788;28;20128;-84
2021/03/20 03:19:28;;;;;;;;;;;;;;;;;;5022435;28;19913;-85
2021/03/20 03:21:53;;;;;;;;;;;;;;;;;;5019367;28;19917;-85
2021/03/20 03:24:18;;;;;;;;;;;;;;;;;;5020919;28;19953;-86
2021/03/20 03:26:43;;;;;;;;;;;;;;;;;;5023048;28;19909;-86
2021/03/20 03:29:08;;;;;;;;;;;;;;;;;;5017530;28;20000;-86
2021/03/20 03:31:34;;;;;;;;;;;;;;;;;;5020182;28;19913;-86
2021/03/20 03:33:59;;;;;;;;;;;;;;;;;;5022474;28;19998;-86
2021/03/20 03:36:24;;;;;;;;;;;;;;;;;;5016889;28;20586;-86
2021/03/20 03:38:49;;;;;;;;;;;;;;;;;;5027348;28;19916;-86
2021/03/20 03:41:14;;;;;;;;;;;;;;;;;;5016024;28;19914;-86
2021/03/20 03:43:39;;;;;;;;;;;;;;;;;;5022709;28;19910;-86
2021/03/20 03:46:04;;;;;;;;;;;;;;;;;;5020506;28;19932;-86
2021/03/20 03:48:29;;;;;;;;;;;;;;;;;;5025841;28;19913;-86
2021/03/20 03:50:55;;;;;;;;;;;;;;;;;;5012554;28;20274;-86
2021/03/20 03:53:20;;;;;;;;;;;;;;;;;;5020685;28;19920;-86
2021/03/20 03:55:45;;;;;;;;;;;;;;;;;;5032756;28;20670;-86
2021/03/20 03:58:10;;;;;;;;;;;;;;;;;;5025760;28;20012;-86
2021/03/20 04:00:35;;;;;;;;;;;;;;;;;;5031525;28;19967;-86
2021/03/20 04:03:00;;;;;;;;;;;;;;;;;;5021164;28;19999;-86
2021/03/20 04:05:25;;;;;;;;;;;;;;;;;;5018250;28;19921;-86
2021/03/20 04:07:50;;;;;;;;;;;;;;;;;;5023056;28;19925;-86
2021/03/20 04:10:15;;;;;;;;;;;;;;;;;;5014326;28;19925;-86
2021/03/20 04:12:41;;;;;;;;;;;;;;;;;;5030361;28;19914;-85
2021/03/20 04:15:06;;;;;;;;;;;;;;;;;;5032729;28;19984;-85
2021/03/20 04:17:31;;;;;;;;;;;;;;;;;;5029724;28;19917;-85
2021/03/20 04:19:56;;;;;;;;;;;;;;;;;;5029794;28;20258;-85
2021/03/20 04:22:22;;;;;;;;;;;;;;;;;;5032437;28;19944;-85
2021/03/20 04:24:47;;;;;;;;;;;;;;;;;;5023384;28;20664;-85
2021/03/20 04:27:12;;;;;;;;;;;;;;;;;;5022310;28;20743;-84
2021/03/20 04:29:38;;;;;;;;;;;;;;;;;;5024620;28;19913;-85
2021/03/20 04:32:03;;;;;;;;;;;;;;;;;;5031471;28;19913;-84
2021/03/20 04:34:28;;;;;;;;;;;;;;;;;;5017194;28;19920;-85
2021/03/20 04:37:03;;;;;;;;;;;;;;;;;;5038515;28;20652;-86
2021/03/20 04:39:46;;;;;;;;;;;;;;;;;;5020721;28;19913;-86
2021/03/20 04:42:11;;;;;;;;;;;;;;;;;;5023449;28;20429;-86
2021/03/20 04:47:22;;;;;;;;;;;;;;;;;;5012265;28;19913;-86
2021/03/20 04:49:47;;;;;;;;;;;;;;;;;;5020534;28;20365;-86
2021/03/20 04:52:12;;;;;;;;;;;;;;;;;;5034816;28;19909;-86
2021/03/20 04:54:37;;;;;;;;;;;;;;;;;;5020183;28;20345;-85
2021/03/20 04:57:02;;;;;;;;;;;;;;;;;;5049123;28;19916;-85
2021/03/20 04:59:27;;;;;;;;;;;;;;;;;;5021285;28;19913;-85
2021/03/20 05:01:52;;;;;;;;;;;;;;;;;;5017745;28;19917;-85
2021/03/20 05:04:17;;;;;;;;;;;;;;;;;;5027266;28;19918;-85
2021/03/20 05:07:00;;;;;;;;;;;;;;;;;;5024754;28;19916;-85
2021/03/20 05:09:25;;;;;;;;;;;;;;;;;;5025528;28;19989;-86
2021/03/20 05:11:53;;;;;;;;;;;;;;;;;;5041892;28;19952;-86
2021/03/20 05:14:18;;;;;;;;;;;;;;;;;;5038079;28;20340;-86
2021/03/20 05:16:59;;;;;;;;;;;;;;;;;;5010856;28;19979;-86
2021/03/20 05:19:25;;;;;;;;;;;;;;;;;;5030621;28;19922;-85
2021/03/20 05:21:50;;;;;;;;;;;;;;;;;;5029938;28;19922;-85
2021/03/20 05:24:15;;;;;;;;;;;;;;;;;;5018962;28;19984;-85
2021/03/20 05:26:41;;;;;;;;;;;;;;;;;;5020039;28;19952;-85
2021/03/20 05:29:06;;;;;;;;;;;;;;;;;;5015300;28;19940;-86
2021/03/20 05:31:31;;;;;;;;;;;;;;;;;;5027334;28;19917;-84
2021/03/20 05:33:56;;;;;;;;;;;;;;;;;;5005876;28;19918;-85
2021/03/20 05:36:21;;;;;;;;;;;;;;;;;;5033881;28;20353;-85
2021/03/20 05:38:46;;;;;;;;;;;;;;;;;;5019732;28;19968;-84
2021/03/20 05:41:11;;;;;;;;;;;;;;;;;;5027937;28;20003;-84
2021/03/20 05:43:36;;;;;;;;;;;;;;;;;;5017426;28;20015;-84
2021/03/20 05:46:01;;;;;;;;;;;;;;;;;;5018164;28;19918;-84
2021/03/20 05:48:26;;;;;;;;;;;;;;;;;;5011720;28;19914;-85
2021/03/20 05:50:52;;;;;;;;;;;;;;;;;;5007633;28;19953;-85
2021/03/20 05:53:17;;;;;;;;;;;;;;;;;;5019994;28;19985;-87
2021/03/20 05:55:42;;;;;;;;;;;;;;;;;;5021212;28;20277;-85
2021/03/20 05:58:07;;;;;;;;;;;;;;;;;;5023796;28;19921;-85
2021/03/20 06:00:33;;;;;;;;;;;;;;;;;;5029061;28;19967;-84
2021/03/20 06:03:17;;;;;;;;;;;;;;;;;;5021471;28;20037;-84
2021/03/20 06:05:44;;;;;;;;;;;;;;;;;;5032963;28;20002;-84
2021/03/20 06:08:12;;;;;;;;;;;;;;;;;;5020131;28;19937;-84
2021/03/20 06:10:38;;;;;;;;;;;;;;;;;;5040774;28;20446;-84
2021/03/20 06:13:24;;;;;;;;;;;;;;;;;;5014936;28;20333;-84
2021/03/20 06:16:00;;;;;;;;;;;;;;;;;;5012967;28;19917;-84
2021/03/20 06:18:25;;;;;;;;;;;;;;;;;;5026233;28;19920;-84
2021/03/20 06:20:53;;;;;;;;;;;;;;;;;;5017956;28;19921;-84
2021/03/20 06:23:35;;;;;;;;;;;;;;;;;;5013776;28;20022;-84
2021/03/20 06:26:00;;;;;;;;;;;;;;;;;;5031778;28;19964;-84
2021/03/20 06:28:25;;;;;;;;;;;;;;;;;;5037274;28;19913;-85
2021/03/20 06:30:50;;;;;;;;;;;;;;;;;;5030220;28;19916;-85
2021/03/20 06:33:15;;;;;;;;;;;;;;;;;;5026801;28;19921;-85
2021/03/20 06:35:43;;;;;;;;;;;;;;;;;;5043955;28;19920;-86
2021/03/20 06:38:09;;;;;;;;;;;;;;;;;;5036440;28;20003;-86
2021/03/20 06:40:34;;;;;;;;;;;;;;;;;;5059335;28;19913;-85
2021/03/20 06:42:59;;;;;;;;;;;;;;;;;;5053365;28;19991;-85
2021/03/20 06:45:44;;;;;;;;;;;;;;;;;;5053184;28;19928;-85
2021/03/20 06:48:09;;;;;;;;;;;;;;;;;;5046862;28;19913;-85
2021/03/20 06:50:34;;;;;;;;;;;;;;;;;;5035874;28;19976;-85
2021/03/20 06:58:26;;;;;;;;;;;;;;;;;;5031199;22;19994;-86
2021/03/20 07:00:51;;;;;;;;;;;;;;;;;;5024909;28;19964;-86
2021/03/20 07:03:16;;;;;;;;;;;;;;;;;;5023041;28;19913;-86
2021/03/20 07:08:26;;;;;;;;;;;;;;;;;;5021939;28;19945;-86
2021/03/20 07:10:51;;;;;;;;;;;;;;;;;;5017790;28;19964;-86
2021/03/20 07:13:36;;;;;;;;;;;;;;;;;;5013649;28;19918;-86
2021/03/20 07:16:17;;;;;;;;;;;;;;;;;;5026044;28;20004;-85
2021/03/20 07:18:42;;;;;;;;;;;;;;;;;;5013270;28;19984;-86
2021/03/20 07:21:13;;;;;;;;;;;;;;;;;;5027470;28;19948;-85
2021/03/20 07:23:38;;;;;;;;;;;;;;;;;;5026250;28;19924;-85
2021/03/20 07:26:05;;;;;;;;;;;;;;;;;;5030523;28;19917;-86
2021/03/20 07:28:30;;;;;;;;;;;;;;;;;;5020072;28;19914;-86
2021/03/20 07:30:58;;;;;;;;;;;;;;;;;;5023156;28;19913;-86
2021/03/20 07:33:43;;;;;;;;;;;;;;;;;;4996558;28;19917;-87
2021/03/20 07:36:09;;;;;;;;;;;;;;;;;;5004524;28;19914;-87
2021/03/20 07:38:36;;;;;;;;;;;;;;;;;;5009877;28;19921;-87
2021/03/20 07:41:01;;;;;;;;;;;;;;;;;;4985900;28;19918;-87
2021/03/20 07:46:10;;;;;;;;;;;;;;;;;;4996216;28;20002;-86
2021/03/20 07:48:35;;;;;;;;;;;;;;;;;;4981040;28;19922;-85
2021/03/20 07:51:01;;;;;;;;;;;;;;;;;;4991440;28;19913;-86
2021/03/20 07:53:29;;;;;;;;;;;;;;;;;;4963160;28;19925;-86
2021/03/20 07:58:45;;;;;;;;;;;;;;;;;;5059470;22;19925;-86
2021/03/20 08:01:11;;;;;;;;;;;;;;;;;;5045538;28;20093;-86
2021/03/20 08:03:58;;;;;;;;;;;;;;;;;;5045793;28;19999;-86
2021/03/20 08:06:51;;;;;;;;;;;;;;;;;;5048666;28;19920;-86
2021/03/20 08:12:06;;;;;;;;;;;;;;;;;;5042130;28;20380;-85
2021/03/20 08:14:51;;;;;;;;;;;;;;;;;;5038403;28;19917;-85
2021/03/20 08:17:16;;;;;;;;;;;;;;;;;;5044602;28;20317;-85
2021/03/20 08:19:42;;;;;;;;;;;;;;;;;;5042838;28;19917;-85
2021/03/20 08:22:07;;;;;;;;;;;;;;;;;;5039712;28;19929;-85
2021/03/20 08:24:35;;;;;;;;;;;;;;;;;;5042910;28;19913;-85
2021/03/20 08:27:00;;;;;;;;;;;;;;;;;;5043295;28;19913;-84
2021/03/20 08:29:25;;;;;;;;;;;;;;;;;;5036161;28;19958;-84
2021/03/20 08:31:51;;;;;;;;;;;;;;;;;;5036754;28;19947;-84
2021/03/20 08:34:17;;;;;;;;;;;;;;;;;;5043922;28;19956;-85
2021/03/20 08:39:26;;;;;;;;;;;;;;;;;;5037814;28;19920;-85
2021/03/20 08:41:51;;;;;;;;;;;;;;;;;;5046026;28;19913;-85
2021/03/20 08:44:36;;;;;;;;;;;;;;;;;;5037826;28;20365;-84
2021/03/20 08:47:01;;;;;;;;;;;;;;;;;;5034772;28;20571;-84
2021/03/20 08:49:26;;;;;;;;;;;;;;;;;;5026552;28;19937;-84
2021/03/20 08:51:53;;;;;;;;;;;;;;;;;;5036905;28;19936;-84
2021/03/20 08:54:18;;;;;;;;;;;;;;;;;;5056430;28;19975;-85
2021/03/20 08:56:44;;;;;;;;;;;;;;;;;;5042668;28;19914;-85
2021/03/20 08:59:09;;;;;;;;;;;;;;;;;;5042821;28;19929;-84
2021/03/20 09:01:34;;;;;;;;;;;;;;;;;;5044975;28;20441;-85
2021/03/20 09:03:59;;;;;;;;;;;;;;;;;;5042449;28;19913;-85
2021/03/20 09:06:24;;;;;;;;;;;;;;;;;;5042648;28;19917;-84
2021/03/20 09:08:49;;;;;;;;;;;;;;;;;;5042747;28;19913;-84
2021/03/20 09:11:14;;;;;;;;;;;;;;;;;;5038254;28;19913;-83
2021/03/20 09:13:39;;;;;;;;;;;;;;;;;;5037721;28;19924;-84
2021/03/20 09:16:04;;;;;;;;;;;;;;;;;;5034521;28;19972;-84
2021/03/20 09:18:29;;;;;;;;;;;;;;;;;;5042639;28;19917;-85
2021/03/20 09:20:55;;;;;;;;;;;;;;;;;;5039947;28;20320;-85
2021/03/20 09:23:20;;;;;;;;;;;;;;;;;;5038277;28;19909;-83
2021/03/20 09:25:45;;;;;;;;;;;;;;;;;;5033750;28;19917;-84
2021/03/20 09:28:12;;;;;;;;;;;;;;;;;;5044506;28;19917;-83
2021/03/20 09:30:37;;;;;;;;;;;;;;;;;;5035313;28;19913;-84
2021/03/20 09:33:02;;;;;;;;;;;;;;;;;;5033287;28;19992;-83
2021/03/20 09:35:28;;;;;;;;;;;;;;;;;;5039551;28;19913;-83
2021/03/20 09:37:53;;;;;;;;;;;;;;;;;;5039341;28;19983;-83
2021/03/20 09:40:18;;;;;;;;;;;;;;;;;;5038999;28;19913;-84
2021/03/20 09:42:43;;;;;;;;;;;;;;;;;;5038520;28;19932;-84
2021/03/20 09:45:08;;;;;;;;;;;;;;;;;;5037580;28;19921;-84
2021/03/20 09:47:34;;;;;;;;;;;;;;;;;;5047707;28;19914;-84
2021/03/20 09:49:59;;;;;;;;;;;;;;;;;;5037285;28;19913;-83
2021/03/20 09:52:24;;;;;;;;;;;;;;;;;;5038735;28;19967;-84
2021/03/20 09:54:49;;;;;;;;;;;;;;;;;;5038776;28;19973;-84
2021/03/20 09:59:39;;;;;;;;;;;;;;;;;;5040516;28;19960;-85
2021/03/20 10:02:04;;;;;;;;;;;;;;;;;;5036507;28;20007;-84
2021/03/20 10:04:30;;;;;;;;;;;;;;;;;;5037440;28;19952;-85
2021/03/20 10:06:55;;;;;;;;;;;;;;;;;;5039273;28;19975;-84
2021/03/20 10:09:20;;;;;;;;;;;;;;;;;;5029672;28;19917;-84
2021/03/20 10:11:45;;;;;;;;;;;;;;;;;;5040558;28;19909;-84
2021/03/20 10:14:10;;;;;;;;;;;;;;;;;;5028040;28;20011;-84
2021/03/20 10:16:35;;;;;;;;;;;;;;;;;;5038885;28;20008;-83
2021/03/20 10:19:00;;;;;;;;;;;;;;;;;;5039213;28;19913;-84
2021/03/20 10:21:25;;;;;;;;;;;;;;;;;;5040971;28;19945;-84
2021/03/20 10:23:50;;;;;;;;;;;;;;;;;;5042582;28;20280;-84
2021/03/20 10:26:15;;;;;;;;;;;;;;;;;;5028099;28;19918;-84
2021/03/20 10:28:40;;;;;;;;;;;;;;;;;;5053436;28;19906;-86
2021/03/20 10:31:06;;;;;;;;;;;;;;;;;;5036095;28;19916;-85
2021/03/20 10:33:31;;;;;;;;;;;;;;;;;;5051484;28;19913;-85
2021/03/20 10:35:56;;;;;;;;;;;;;;;;;;5037132;28;19914;-85
2021/03/20 10:38:21;;;;;;;;;;;;;;;;;;5037610;28;19913;-84
2021/03/20 10:40:46;;;;;;;;;;;;;;;;;;5027240;28;19918;-84
2021/03/20 10:43:11;;;;;;;;;;;;;;;;;;5037123;28;19940;-85
2021/03/20 10:45:36;;;;;;;;;;;;;;;;;;5040589;28;19921;-85
2021/03/20 10:48:01;;;;;;;;;;;;;;;;;;5041815;28;20336;-83
2021/03/20 10:50:27;;;;;;;;;;;;;;;;;;5047776;28;19936;-84
2021/03/20 10:52:52;;;;;;;;;;;;;;;;;;5043781;28;20414;-85
2021/03/20 10:55:17;;;;;;;;;;;;;;;;;;5062865;28;20127;-85
2021/03/20 10:57:42;;;;;;;;;;;;;;;;;;5033128;28;19918;-85
2021/03/20 11:00:07;;;;;;;;;;;;;;;;;;5046869;28;19929;-85
2021/03/20 11:02:32;;;;;;;;;;;;;;;;;;5041297;28;19920;-85
2021/03/20 11:04:58;;;;;;;;;;;;;;;;;;5040218;28;19916;-84
2021/03/20 11:07:24;;;;;;;;;;;;;;;;;;5030571;28;19913;-85
2021/03/20 11:09:49;;;;;;;;;;;;;;;;;;5037034;28;19940;-86
2021/03/20 11:12:15;;;;;;;;;;;;;;;;;;5038973;28;20763;-86
2021/03/20 11:14:40;;;;;;;;;;;;;;;;;;5048224;28;19964;-85
2021/03/20 11:17:05;;;;;;;;;;;;;;;;;;5028639;28;19914;-84
2021/03/20 11:19:31;;;;;;;;;;;;;;;;;;5041854;28;19913;-86
2021/03/20 11:22:00;;;;;;;;;;;;;;;;;;5043332;28;19921;-85
2021/03/20 11:24:26;;;;;;;;;;;;;;;;;;5042058;28;20284;-86
2021/03/20 11:26:51;;;;;;;;;;;;;;;;;;5029301;28;19913;-86
2021/03/20 11:29:16;;;;;;;;;;;;;;;;;;5062870;28;19921;-85
2021/03/20 11:31:42;;;;;;;;;;;;;;;;;;5048502;28;19924;-86
2021/03/20 11:34:07;;;;;;;;;;;;;;;;;;5035317;28;19913;-85
2021/03/20 11:36:32;;;;;;;;;;;;;;;;;;5042955;28;19909;-84
2021/03/20 11:38:57;;;;;;;;;;;;;;;;;;5047051;28;19979;-85
2021/03/20 11:41:23;;;;;;;;;;;;;;;;;;5056325;28;19909;-86
2021/03/20 11:43:48;;;;;;;;;;;;;;;;;;5041290;28;20028;-86
2021/03/20 11:46:13;;;;;;;;;;;;;;;;;;5039487;28;20451;-85
2021/03/20 11:48:38;;;;;;;;;;;;;;;;;;5049830;28;20023;-87
2021/03/20 11:51:03;;;;;;;;;;;;;;;;;;5041756;28;20312;-86
2021/03/20 11:53:28;;;;;;;;;;;;;;;;;;5042138;28;19920;-86
2021/03/20 11:55:53;;;;;;;;;;;;;;;;;;5043454;28;19909;-86
2021/03/20 11:58:18;;;;;;;;;;;;;;;;;;5031380;28;20340;-85
2021/03/20 12:00:44;;;;;;;;;;;;;;;;;;5013935;28;19925;-86
2021/03/20 12:03:09;;;;;;;;;;;;;;;;;;5031063;28;19959;-85
2021/03/20 12:05:36;;;;;;;;;;;;;;;;;;5024091;28;19953;-87
2021/03/20 12:08:01;;;;;;;;;;;;;;;;;;5019055;28;19965;-87
2021/03/20 12:10:26;;;;;;;;;;;;;;;;;;5023993;28;19910;-86
2021/03/20 12:12:51;;;;;;;;;;;;;;;;;;5022738;28;19914;-86
2021/03/20 12:15:17;;;;;;;;;;;;;;;;;;5023465;28;19997;-86
2021/03/20 12:17:42;;;;;;;;;;;;;;;;;;5005104;28;20451;-86
2021/03/20 12:20:07;;;;;;;;;;;;;;;;;;5022177;28;19921;-85
2021/03/20 12:22:33;;;;;;;;;;;;;;;;;;5027791;28;20341;-85
2021/03/20 12:24:58;;;;;;;;;;;;;;;;;;5021018;28;19917;-86
2021/03/20 12:27:23;;;;;;;;;;;;;;;;;;5038184;28;19936;-86
2021/03/20 12:29:50;;;;;;;;;;;;;;;;;;5025932;28;19913;-86
2021/03/20 12:32:15;;;;;;;;;;;;;;;;;;5044784;28;20012;-86
2021/03/20 12:34:40;;;;;;;;;;;;;;;;;;5043013;28;19964;-85
2021/03/20 12:37:06;;;;;;;;;;;;;;;;;;5036673;28;19944;-86
2021/03/20 12:39:31;;;;;;;;;;;;;;;;;;5033622;28;19998;-86
2021/03/20 12:41:56;;;;;;;;;;;;;;;;;;5044719;28;19973;-86
2021/03/20 12:44:22;;;;;;;;;;;;;;;;;;5043746;28;20277;-86
2021/03/20 12:46:48;;;;;;;;;;;;;;;;;;5039136;28;19939;-86
2021/03/20 12:49:13;;;;;;;;;;;;;;;;;;5045741;28;19913;-87
2021/03/20 12:51:38;;;;;;;;;;;;;;;;;;5028611;28;19913;-86
2021/03/20 12:54:03;;;;;;;;;;;;;;;;;;5043383;28;20456;-86
2021/03/20 12:56:28;;;;;;;;;;;;;;;;;;5046880;28;19944;-86
2021/03/20 12:58:53;;;;;;;;;;;;;;;;;;5046939;28;19948;-87
2021/03/20 13:01:18;;;;;;;;;;;;;;;;;;5024367;28;19909;-86
2021/03/20 13:03:43;;;;;;;;;;;;;;;;;;5017172;28;19970;-86
2021/03/20 13:06:09;;;;;;;;;;;;;;;;;;5020718;28;19918;-86
2021/03/20 13:08:37;;;;;;;;;;;;;;;;;;4997322;28;19913;-87
2021/03/20 13:11:02;;;;;;;;;;;;;;;;;;5020830;28;19917;-87
2021/03/20 13:13:27;;;;;;;;;;;;;;;;;;4994041;28;19921;-86
2021/03/20 13:15:52;;;;;;;;;;;;;;;;;;5015446;28;20000;-86
2021/03/20 13:18:17;;;;;;;;;;;;;;;;;;5014543;28;19930;-87
2021/03/20 13:20:42;;;;;;;;;;;;;;;;;;5014638;28;19914;-87
2021/03/20 13:23:07;;;;;;;;;;;;;;;;;;5014214;28;19914;-86
2021/03/20 13:25:32;;;;;;;;;;;;;;;;;;5023794;28;19928;-86
2021/03/20 13:27:58;;;;;;;;;;;;;;;;;;5005944;28;19909;-86
2021/03/20 13:30:23;;;;;;;;;;;;;;;;;;5007271;28;19920;-87
2021/03/20 13:32:48;;;;;;;;;;;;;;;;;;5042553;28;19917;-87
2021/03/20 13:35:14;;;;;;;;;;;;;;;;;;5044650;28;19920;-87
2021/03/20 13:37:39;;;;;;;;;;;;;;;;;;5036362;28;19936;-87
2021/03/20 13:40:05;;;;;;;;;;;;;;;;;;5053039;28;19909;-86
2021/03/20 13:42:30;;;;;;;;;;;;;;;;;;5038691;28;20007;-86
2021/03/20 13:44:55;;;;;;;;;;;;;;;;;;5049474;28;19935;-86
2021/03/20 13:47:20;;;;;;;;;;;;;;;;;;5043498;28;19937;-87
2021/03/20 13:49:45;;;;;;;;;;;;;;;;;;5059205;28;19913;-88
2021/03/20 13:52:10;;;;;;;;;;;;;;;;;;5042951;28;20010;-88
2021/03/20 13:54:54;;;;;;;;;;;;;;;;;;5039900;28;19913;-89
2021/03/20 13:57:19;;;;;;;;;;;;;;;;;;5047605;28;19940;-89
2021/03/20 13:59:44;;;;;;;;;;;;;;;;;;5035049;28;20007;-88
2021/03/20 14:02:09;;;;;;;;;;;;;;;;;;5046708;28;19913;-89
2021/03/20 14:04:38;;;;;;;;;;;;;;;;;;5046087;28;19948;-88
2021/03/20 14:07:03;;;;;;;;;;;;;;;;;;5047072;28;19917;-88
2021/03/20 14:09:28;;;;;;;;;;;;;;;;;;5046389;28;19920;-88
2021/03/20 14:11:54;;;;;;;;;;;;;;;;;;5034164;28;19901;-89
2021/03/20 14:14:20;;;;;;;;;;;;;;;;;;5049340;28;19941;-88
2021/03/20 14:16:51;;;;;;;;;;;;;;;;;;5044719;28;19970;-89
2021/03/20 14:19:36;;;;;;;;;;;;;;;;;;5034545;28;19932;-88
2021/03/20 14:22:01;;;;;;;;;;;;;;;;;;5046901;28;19913;-89
2021/03/20 14:24:26;;;;;;;;;;;;;;;;;;5048819;28;19955;-88
2021/03/20 14:26:52;;;;;;;;;;;;;;;;;;5043455;28;19904;-89
2021/03/20 14:29:17;;;;;;;;;;;;;;;;;;5050681;28;19913;-89
2021/03/20 14:32:02;;;;;;;;;;;;;;;;;;5052876;28;20315;-89
2021/03/20 14:34:31;;;;;;;;;;;;;;;;;;5047231;28;19917;-88
2021/03/20 14:36:56;;;;;;;;;;;;;;;;;;5047288;28;19947;-87
2021/03/20 14:39:23;;;;;;;;;;;;;;;;;;5049767;28;20512;-89
2021/03/20 14:41:49;;;;;;;;;;;;;;;;;;5050330;28;19912;-88
2021/03/20 14:44:14;;;;;;;;;;;;;;;;;;5059350;28;19909;-89
2021/03/20 14:46:39;;;;;;;;;;;;;;;;;;5044970;28;19912;-89
2021/03/20 14:49:04;;;;;;;;;;;;;;;;;;5052540;28;19928;-89
2021/03/20 14:51:29;;;;;;;;;;;;;;;;;;5035687;28;19914;-88
2021/03/20 14:53:54;;;;;;;;;;;;;;;;;;5040398;28;19913;-89
2021/03/20 14:56:19;;;;;;;;;;;;;;;;;;5035749;28;19913;-87
2021/03/20 14:58:45;;;;;;;;;;;;;;;;;;5057458;28;19996;-88
2021/03/20 15:01:30;;;;;;;;;;;;;;;;;;5048535;28;19908;-89
2021/03/20 15:04:21;;;;;;;;;;;;;;;;;;5048194;28;19973;-90
2021/03/20 15:07:06;;;;;;;;;;;;;;;;;;5052781;28;19944;-89
2021/03/20 15:09:31;;;;;;;;;;;;;;;;;;5049382;28;19913;-89
2021/03/20 15:11:59;;;;;;;;;;;;;;;;;;5028950;28;19980;-90
2021/03/20 15:14:30;;;;;;;;;;;;;;;;;;5032663;28;19976;-89
2021/03/20 15:17:18;;;;;;;;;;;;;;;;;;5023443;28;19973;-90
2021/03/20 15:19:46;;;;;;;;;;;;;;;;;;5015569;28;19910;-90
2021/03/20 15:22:11;;;;;;;;;;;;;;;;;;5008955;28;19921;-89
2021/03/20 15:24:46;;;;;;;;;;;;;;;;;;5029546;28;19928;-89
2021/03/20 15:27:12;;;;;;;;;;;;;;;;;;5028657;28;19913;-89
2021/03/20 15:29:56;;;;;;;;;;;;;;;;;;5030226;28;19952;-89
2021/03/20 15:32:24;;;;;;;;;;;;;;;;;;5014367;28;20386;-89
2021/03/20 15:34:51;;;;;;;;;;;;;;;;;;5027874;28;19924;-89
2021/03/20 15:37:45;;;;;;;;;;;;;;;;;;5027751;28;19941;-89
2021/03/20 15:40:11;;;;;;;;;;;;;;;;;;5010504;28;19913;-89
2021/03/20 15:42:36;;;;;;;;;;;;;;;;;;5024347;28;19955;-84
2021/03/20 15:45:06;;;;;;;;;;;;;;;;;;5039210;28;19917;-84
2021/03/20 15:47:41;;;;;;;;;;;;;;;;;;;;;
2021/03/20 15:50:10;;;;;;;;;;;;;;;;;;5039620;28;19984;-84
2021/03/20 15:52:35;;;;;;;;;;;;;;;;;;5039987;28;20035;-83
2021/03/20 15:55:00;;;;;;;;;;;;;;;;;;5038556;28;19923;-85
2021/03/20 15:57:25;;;;;;;;;;;;;;;;;;5039275;28;19920;-84
2021/03/20 16:00:08;;;;;;;;;;;;;;;;;;5035868;28;19924;-84
2021/03/20 16:02:46;;;;;;;;;;;;;;;;;;5033611;28;19913;-83
2021/03/20 16:05:11;;;;;;;;;;;;;;;;;;5039110;28;20015;-83
2021/03/20 16:07:36;;;;;;;;;;;;;;;;;;5038971;28;19921;-84
2021/03/20 16:10:01;;;;;;;;;;;;;;;;;;5039424;28;19917;-84
2021/03/20 16:15:20;;;;;;;;;;;;;;;;;;4961808;29;20029;-84
2021/03/20 16:26:16;;;;;;;;;;;;;;;;;;4905911;29;19926;-84
2021/03/20 16:28:43;;;;;;;;;;;;;;;;;;4907237;29;19915;-84
2021/03/20 16:31:19;;;;;;;;;;;;;;;;;;4900842;29;19939;-85
2021/03/20 16:33:44;;;;;;;;;;;;;;;;;;4906117;29;19919;-83
2021/03/20 16:36:09;;;;;;;;;;;;;;;;;;4904586;29;19912;-83
2021/03/20 16:38:34;;;;;;;;;;;;;;;;;;4903671;29;19959;-84
2021/03/20 16:41:02;;;;;;;;;;;;;;;;;;4902014;29;19944;-84
2021/03/20 16:43:27;;;;;;;;;;;;;;;;;;4897253;29;19960;-84
2021/03/20 16:45:53;;;;;;;;;;;;;;;;;;4904585;29;19919;-84
2021/03/20 16:48:18;;;;;;;;;;;;;;;;;;4903126;29;19915;-84
2021/03/20 16:50:43;;;;;;;;;;;;;;;;;;4897607;29;19923;-84
2021/03/20 16:53:08;;;;;;;;;;;;;;;;;;4941808;29;19944;-85
2021/03/20 16:55:34;;;;;;;;;;;;;;;;;;4948528;29;19911;-83
2021/03/20 16:58:00;;;;;;;;;;;;;;;;;;4965913;28;19918;-84
2021/03/20 17:00:26;;;;;;;;;;;;;;;;;;5000547;28;19925;-83
2021/03/20 17:02:51;;;;;;;;;;;;;;;;;;5037228;28;19923;-84
2021/03/20 17:05:16;;;;;;;;;;;;;;;;;;5034951;28;19917;-83
2021/03/20 17:07:41;;;;;;;;;;;;;;;;;;5042005;28;20109;-84
2021/03/20 17:10:06;;;;;;;;;;;;;;;;;;5035959;28;19918;-83
2021/03/20 17:12:31;;;;;;;;;;;;;;;;;;5033653;28;19917;-84
2021/03/20 17:14:56;;;;;;;;;;;;;;;;;;5032759;28;20286;-85
2021/03/20 17:17:21;;;;;;;;;;;;;;;;;;5056421;28;19924;-84
2021/03/20 17:19:49;;;;;;;;;;;;;;;;;;5044832;28;19925;-83
2021/03/20 17:22:14;;;;;;;;;;;;;;;;;;5034157;28;20649;-83
2021/03/20 17:24:39;;;;;;;;;;;;;;;;;;5034414;28;20365;-84
2021/03/20 17:27:05;;;;;;;;;;;;;;;;;;5038524;28;19917;-83
2021/03/20 17:29:30;;;;;;;;;;;;;;;;;;5039036;28;19917;-84
2021/03/20 17:31:55;;;;;;;;;;;;;;;;;;5036061;28;19913;-84
2021/03/20 17:34:20;;;;;;;;;;;;;;;;;;5039333;28;20360;-84
2021/03/20 17:36:45;;;;;;;;;;;;;;;;;;5051432;28;19924;-84
2021/03/20 17:39:10;;;;;;;;;;;;;;;;;;5042220;28;19909;-83
2021/03/20 17:41:35;;;;;;;;;;;;;;;;;;5029426;28;20314;-83
2021/03/20 17:44:01;;;;;;;;;;;;;;;;;;5024045;28;20337;-82